Time;durP1;ratioP1;P1;durP2;ratioP2;P2;SDS_P1;SDS_P2;PMS_P1;PMS_P2;Temp;Humidity;BMP_temperature;BMP_pressure;BME280_temperature;BME280_humidity;BME280_pressure;Samples;Min_cycle;Max_cycle;Signal;HPM_P1;HPM_P2
2024/02/18 00:01:17;;;;;;;11.43;9.67;;;8.00;99.90;;;;;;4973746;28;20454;-67
2024/02/18 00:03:43;;;;;;;12.13;9.13;;;8.00;99.90;;;;;;4973679;28;20451;-67
2024/02/18 00:06:08;;;;;;;9.63;8.63;;;8.10;99.90;;;;;;4973980;28;20173;-67
2024/02/18 00:08:34;;;;;;;10.67;8.70;;;8.10;99.90;;;;;;4973244;28;20200;-67
2024/02/18 00:10:59;;;;;;;9.97;8.93;;;8.20;99.90;;;;;;4973582;28;20191;-67
2024/02/18 00:13:25;;;;;;;10.73;8.73;;;8.20;99.90;;;;;;4973586;28;20172;-67
2024/02/18 00:15:50;;;;;;;14.43;10.30;;;8.30;99.90;;;;;;4973509;28;20172;-67
2024/02/18 00:18:16;;;;;;;11.10;9.40;;;8.30;99.90;;;;;;4972960;28;20596;-67
2024/02/18 00:20:41;;;;;;;9.00;8.10;;;8.40;99.90;;;;;;4973467;28;20176;-67
2024/02/18 00:23:06;;;;;;;10.13;9.13;;;8.40;99.90;;;;;;4973455;28;20543;-67
2024/02/18 00:25:32;;;;;;;10.17;9.00;;;8.40;99.90;;;;;;4973368;28;20176;-68
2024/02/18 00:27:57;;;;;;;11.70;8.50;;;8.50;99.90;;;;;;4973045;28;20196;-67
2024/02/18 00:30:24;;;;;;;9.03;8.13;;;8.50;99.90;;;;;;4973386;28;20181;-67
2024/02/18 00:32:50;;;;;;;13.43;11.47;;;8.40;99.90;;;;;;4973302;28;20196;-67
2024/02/18 00:35:15;;;;;;;8.97;8.03;;;8.40;99.90;;;;;;4973364;28;20940;-67
2024/02/18 00:37:41;;;;;;;10.50;8.23;;;8.30;99.90;;;;;;4972745;28;20220;-67
2024/02/18 00:40:08;;;;;;;8.73;7.93;;;8.20;99.90;;;;;;4973283;28;20175;-68
2024/02/18 00:42:33;;;;;;;9.90;8.10;;;8.20;99.90;;;;;;4973347;28;20164;-67
2024/02/18 00:44:59;;;;;;;11.50;8.37;;;8.20;99.90;;;;;;4973175;28;20419;-67
2024/02/18 00:47:24;;;;;;;9.83;8.80;;;8.20;99.90;;;;;;4972759;28;20291;-67
2024/02/18 00:49:50;;;;;;;10.07;9.13;;;8.30;99.90;;;;;;4973147;28;20271;-67
2024/02/18 00:52:15;;;;;;;10.63;9.13;;;8.30;99.90;;;;;;4973310;28;20212;-67
2024/02/18 00:54:41;;;;;;;9.33;8.43;;;8.30;99.90;;;;;;4973206;28;20275;-67
2024/02/18 00:57:06;;;;;;;10.03;9.03;;;8.40;99.90;;;;;;4972716;28;20208;-67
2024/02/18 00:59:32;;;;;;;9.20;7.87;;;8.40;99.90;;;;;;4973021;28;20262;-67
2024/02/18 01:01:57;;;;;;;10.80;8.30;;;8.40;99.90;;;;;;4973042;28;20176;-67
2024/02/18 01:04:23;;;;;;;12.20;9.53;;;8.40;99.90;;;;;;4973030;28;20176;-67
2024/02/18 01:06:48;;;;;;;9.30;8.40;;;8.50;99.90;;;;;;4972726;28;20220;-67
2024/02/18 01:09:14;;;;;;;10.17;9.13;;;8.50;99.90;;;;;;4973145;28;20188;-67
2024/02/18 01:11:40;;;;;;;10.40;9.30;;;8.40;99.90;;;;;;4972994;28;20165;-67
2024/02/18 01:14:05;;;;;;;10.10;9.20;;;8.40;99.90;;;;;;4955575;28;20475;-67
2024/02/18 01:16:31;;;;;;;11.80;8.57;;;8.40;99.90;;;;;;4972540;28;20231;-67
2024/02/18 01:18:56;;;;;;;9.57;8.20;;;8.60;99.90;;;;;;4973062;28;20252;-67
2024/02/18 01:21:22;;;;;;;10.97;9.00;;;8.50;99.90;;;;;;4972863;28;20646;-68
2024/02/18 01:23:47;;;;;;;16.27;9.47;;;8.50;99.90;;;;;;4972852;28;20176;-67
2024/02/18 01:26:13;;;;;;;11.23;9.70;;;8.50;99.90;;;;;;4972758;28;20220;-67
2024/02/18 01:28:41;;;;;;;11.63;9.50;;;8.60;99.90;;;;;;4972542;28;20544;-67
2024/02/18 01:31:06;;;;;;;10.50;9.50;;;8.60;99.90;;;;;;4972782;28;20175;-67
2024/02/18 01:33:32;;;;;;;20.13;9.13;;;8.60;99.90;;;;;;4972815;28;20775;-67
2024/02/18 01:35:57;;;;;;;10.50;9.40;;;8.50;99.90;;;;;;4972787;28;20526;-67
2024/02/18 01:38:23;;;;;;;11.30;8.77;;;8.50;99.90;;;;;;4972883;28;20212;-69
2024/02/18 01:40:48;;;;;;;11.80;9.30;;;8.40;99.90;;;;;;4972762;28;20172;-68
2024/02/18 01:43:17;;;;;;;12.40;9.60;;;8.40;99.90;;;;;;4972598;28;20176;-69
2024/02/18 01:45:44;;;;;;;9.70;8.70;;;8.40;99.90;;;;;;4972637;28;20176;-68
2024/02/18 01:48:10;;;;;;;13.67;8.77;;;8.40;99.90;;;;;;4972433;28;20514;-69
2024/02/18 01:50:35;;;;;;;8.70;7.80;;;8.40;99.90;;;;;;4974762;28;20453;-69
2024/02/18 01:53:01;;;;;;;10.27;8.47;;;8.40;99.90;;;;;;4976198;28;20654;-68
2024/02/18 01:55:27;;;;;;;8.90;8.03;;;8.50;99.90;;;;;;4976019;28;20661;-69
2024/02/18 01:57:52;;;;;;;8.83;7.77;;;8.50;99.90;;;;;;4975514;28;20518;-69
2024/02/18 02:00:19;;;;;;;12.20;7.83;;;8.50;99.90;;;;;;4975880;28;20164;-69
2024/02/18 02:02:49;;;;;;;8.70;7.73;;;8.50;99.90;;;;;;4975946;28;20164;-68
2024/02/18 02:05:19;;;;;;;8.83;7.90;;;8.60;99.90;;;;;;4975759;28;20502;-69
2024/02/18 02:07:45;;;;;;;8.60;7.80;;;8.50;99.90;;;;;;4975499;28;20440;-69
2024/02/18 02:10:12;;;;;;;11.27;9.93;;;8.50;99.90;;;;;;4975882;28;20955;-68
2024/02/18 02:12:40;;;;;;;9.57;8.57;;;8.50;99.90;;;;;;4975723;28;20478;-68
2024/02/18 02:15:07;;;;;;;12.13;8.17;;;8.40;99.90;;;;;;4975590;28;20478;-69
2024/02/18 02:17:32;;;;;;;9.10;8.20;;;8.30;99.90;;;;;;4975186;28;20538;-69
2024/02/18 02:19:58;;;;;;;10.90;7.93;;;8.20;99.90;;;;;;4975604;28;20412;-69
2024/02/18 02:22:23;;;;;;;16.07;7.77;;;8.20;99.90;;;;;;4975537;28;20184;-68
2024/02/18 02:24:49;;;;;;;9.73;8.60;;;8.10;99.90;;;;;;4975538;28;20168;-69
2024/02/18 02:27:20;;;;;;;13.07;7.83;;;8.10;99.90;;;;;;4975071;28;20203;-69
2024/02/18 02:29:47;;;;;;;8.43;7.53;;;8.20;99.90;;;;;;4975428;28;20235;-69
2024/02/18 02:32:13;;;;;;;11.07;10.00;;;8.10;99.90;;;;;;4975406;28;20427;-69
2024/02/18 02:34:39;;;;;;;13.90;9.00;;;8.10;99.90;;;;;;4975307;28;20796;-69
2024/02/18 02:37:04;;;;;;;13.90;9.40;;;8.10;99.90;;;;;;4974854;28;20471;-68
2024/02/18 02:39:30;;;;;;;11.37;8.80;;;8.00;99.90;;;;;;4975165;28;20556;-69
2024/02/18 02:41:55;;;;;;;9.40;8.27;;;8.00;99.90;;;;;;4974970;28;20263;-68
2024/02/18 02:44:21;;;;;;;10.67;8.90;;;7.90;99.90;;;;;;4975273;28;20209;-69
2024/02/18 02:46:46;;;;;;;10.03;9.03;;;7.90;99.90;;;;;;4974930;28;20807;-69
2024/02/18 02:49:12;;;;;;;10.00;9.10;;;7.90;99.90;;;;;;4975069;28;20710;-69
2024/02/18 02:51:37;;;;;;;9.10;8.10;;;7.80;99.90;;;;;;4974962;28;20219;-68
2024/02/18 02:54:04;;;;;;;9.67;8.67;;;7.70;99.90;;;;;;4975002;28;20172;-69
2024/02/18 02:56:30;;;;;;;10.07;9.07;;;7.60;99.90;;;;;;4974412;28;20160;-68
2024/02/18 02:58:56;;;;;;;8.20;7.40;;;7.60;99.90;;;;;;4974959;28;20416;-68
2024/02/18 03:01:21;;;;;;;9.57;8.67;;;7.50;99.90;;;;;;4973740;28;20497;-69
2024/02/18 03:03:47;;;;;;;11.30;8.40;;;7.50;99.90;;;;;;4974815;28;20687;-68
2024/02/18 03:06:12;;;;;;;10.23;9.13;;;7.40;99.90;;;;;;4974612;28;20175;-69
2024/02/18 03:08:41;;;;;;;10.00;9.00;;;7.40;99.90;;;;;;4974576;28;20180;-68
2024/02/18 03:11:08;;;;;;;9.43;8.50;;;7.40;99.90;;;;;;4974661;28;20208;-68
2024/02/18 03:13:34;;;;;;;8.63;7.77;;;7.40;99.90;;;;;;4974820;28;20443;-69
2024/02/18 03:15:59;;;;;;;10.07;8.47;;;7.30;99.90;;;;;;4974522;28;21004;-68
2024/02/18 03:18:25;;;;;;;9.47;7.53;;;7.20;99.90;;;;;;4974141;28;20216;-68
2024/02/18 03:20:50;;;;;;;12.37;8.97;;;7.20;99.90;;;;;;4974673;28;20180;-69
2024/02/18 03:23:16;;;;;;;10.67;9.57;;;7.20;99.90;;;;;;4974463;28;20522;-68
2024/02/18 03:25:43;;;;;;;9.97;8.43;;;7.20;99.90;;;;;;4974356;28;20203;-68
2024/02/18 03:28:09;;;;;;;12.43;9.87;;;7.10;99.90;;;;;;4973957;28;20192;-68
2024/02/18 03:30:35;;;;;;;11.33;8.87;;;7.10;99.90;;;;;;4974231;28;20423;-69
2024/02/18 03:33:01;;;;;;;10.60;9.10;;;7.10;99.90;;;;;;4974374;28;20526;-68
2024/02/18 03:35:29;;;;;;;12.83;10.07;;;7.10;99.90;;;;;;4974259;28;20594;-69
2024/02/18 03:37:56;;;;;;;10.00;8.67;;;7.00;99.90;;;;;;4973868;28;20211;-69
2024/02/18 03:40:22;;;;;;;12.73;10.53;;;7.00;99.90;;;;;;4974150;28;20864;-68
2024/02/18 03:42:48;;;;;;;10.93;9.03;;;7.00;99.90;;;;;;4974058;28;20431;-68
2024/02/18 03:45:14;;;;;;;11.70;9.80;;;7.00;99.90;;;;;;4973919;28;20419;-69
2024/02/18 03:47:40;;;;;;;12.23;9.97;;;7.00;99.90;;;;;;4973727;28;20454;-68
2024/02/18 03:50:06;;;;;;;13.20;10.77;;;7.00;99.90;;;;;;4974006;28;20549;-68
2024/02/18 03:52:31;;;;;;;12.17;10.67;;;7.00;99.90;;;;;;4973825;28;20423;-69
2024/02/18 03:54:57;;;;;;;13.37;11.97;;;7.00;99.90;;;;;;4973919;28;20180;-69
2024/02/18 03:57:22;;;;;;;13.70;12.30;;;6.90;99.90;;;;;;4973516;28;20239;-68
2024/02/18 03:59:48;;;;;;;14.57;12.23;;;6.90;99.90;;;;;;4973907;28;20191;-69
2024/02/18 04:02:13;;;;;;;15.03;13.03;;;7.00;99.90;;;;;;4973808;28;20172;-69
2024/02/18 04:04:39;;;;;;;14.03;12.63;;;6.90;99.90;;;;;;4973873;28;20176;-68
2024/02/18 04:07:05;;;;;;;14.13;12.57;;;7.00;99.90;;;;;;4973357;28;20737;-69
2024/02/18 04:09:30;;;;;;;18.87;13.13;;;7.00;99.90;;;;;;4973563;28;20180;-68
2024/02/18 04:11:57;;;;;;;13.63;12.07;;;6.90;99.90;;;;;;4973519;28;20168;-69
2024/02/18 04:14:22;;;;;;;17.70;13.87;;;6.90;99.90;;;;;;4973423;28;20179;-69
2024/02/18 04:16:49;;;;;;;16.70;12.40;;;6.90;99.90;;;;;;4973093;28;20463;-68
2024/02/18 04:19:14;;;;;;;14.27;12.87;;;6.90;99.90;;;;;;4973603;28;20256;-69
2024/02/18 04:21:40;;;;;;;14.80;11.90;;;6.90;99.90;;;;;;4973560;28;20506;-68
2024/02/18 04:24:05;;;;;;;14.43;12.03;;;6.80;99.90;;;;;;4973463;28;20222;-68
2024/02/18 04:26:31;;;;;;;17.40;12.87;;;6.80;99.90;;;;;;4973090;28;20176;-69
2024/02/18 04:28:56;;;;;;;13.33;12.03;;;6.80;99.90;;;;;;4973372;28;20164;-69
2024/02/18 04:31:22;;;;;;;12.93;11.73;;;6.70;99.90;;;;;;4973393;28;20172;-68
2024/02/18 04:33:47;;;;;;;14.33;12.93;;;6.70;99.90;;;;;;4973602;28;20258;-68
2024/02/18 04:36:13;;;;;;;12.50;10.70;;;6.60;99.90;;;;;;4973079;28;20175;-69
2024/02/18 04:38:39;;;;;;;13.33;11.97;;;6.60;99.90;;;;;;4972967;28;20283;-69
2024/02/18 04:41:05;;;;;;;16.50;13.47;;;6.50;99.90;;;;;;4973320;28;20219;-68
2024/02/18 04:43:30;;;;;;;12.80;11.53;;;6.50;99.90;;;;;;4973280;28;21121;-68
2024/02/18 04:45:56;;;;;;;15.13;12.23;;;6.50;99.90;;;;;;4973302;28;20165;-69
2024/02/18 04:48:22;;;;;;;12.50;11.03;;;6.50;99.90;;;;;;4972854;28;20673;-69
2024/02/18 04:50:47;;;;;;;19.63;12.63;;;6.40;99.90;;;;;;4973227;28;20685;-68
2024/02/18 04:53:13;;;;;;;13.13;11.50;;;6.40;99.90;;;;;;4973052;28;20176;-69
2024/02/18 04:55:38;;;;;;;13.60;11.70;;;6.30;99.90;;;;;;4973113;28;20535;-68
2024/02/18 04:58:03;;;;;;;12.10;10.90;;;6.30;99.90;;;;;;4972696;28;20769;-68
2024/02/18 05:00:29;;;;;;;10.67;9.60;;;6.30;99.90;;;;;;4973159;28;20173;-68
2024/02/18 05:02:54;;;;;;;12.23;11.03;;;6.20;99.90;;;;;;4973160;28;20204;-68
2024/02/18 05:05:20;;;;;;;12.10;10.90;;;6.20;99.90;;;;;;4973119;28;20646;-69
2024/02/18 05:07:46;;;;;;;13.10;11.80;;;6.10;99.90;;;;;;4972694;28;20682;-69
2024/02/18 05:10:11;;;;;;;12.43;10.87;;;6.10;99.90;;;;;;4973071;28;20524;-68
2024/02/18 05:12:37;;;;;;;12.53;9.70;;;6.10;99.90;;;;;;4972939;28;20180;-68
2024/02/18 05:15:02;;;;;;;11.23;9.97;;;6.10;99.90;;;;;;4973140;28;20176;-69
2024/02/18 05:17:28;;;;;;;11.73;10.33;;;6.10;99.90;;;;;;4972518;28;20209;-69
2024/02/18 05:19:54;;;;;;;11.60;10.50;;;6.10;99.90;;;;;;4972936;28;20239;-68
2024/02/18 05:22:19;;;;;;;11.93;10.37;;;6.10;99.90;;;;;;4972817;28;20169;-68
2024/02/18 05:24:48;;;;;;;11.70;10.17;;;6.10;99.90;;;;;;4973842;28;20419;-69
2024/02/18 05:27:14;;;;;;;11.20;9.90;;;6.10;99.90;;;;;;4976306;28;20271;-69
2024/02/18 05:29:40;;;;;;;12.53;10.23;;;6.00;99.90;;;;;;4976575;28;20908;-68
2024/02/18 05:32:06;;;;;;;12.00;10.90;;;6.00;99.90;;;;;;4976517;28;20538;-68
2024/02/18 05:34:31;;;;;;;14.00;11.07;;;6.00;99.90;;;;;;4976398;28;20502;-68
2024/02/18 05:36:57;;;;;;;13.83;11.10;;;6.00;99.90;;;;;;4975875;28;20208;-68
2024/02/18 05:39:22;;;;;;;15.23;12.83;;;5.90;99.90;;;;;;4976580;28;20674;-68
2024/02/18 05:41:48;;;;;;;11.80;10.60;;;5.90;99.90;;;;;;4976366;28;20200;-69
2024/02/18 05:44:13;;;;;;;13.60;11.07;;;5.80;99.90;;;;;;4976401;28;20172;-69
2024/02/18 05:46:39;;;;;;;14.77;12.67;;;5.80;99.90;;;;;;4990510;28;20199;-68
2024/02/18 05:49:05;;;;;;;13.77;12.40;;;5.80;99.90;;;;;;4995249;28;20219;-69
2024/02/18 05:51:31;;;;;;;15.43;11.83;;;5.70;99.90;;;;;;4995217;28;20180;-69
2024/02/18 05:53:58;;;;;;;17.20;13.03;;;5.80;99.90;;;;;;4995304;28;20202;-69
2024/02/18 05:56:23;;;;;;;16.00;12.10;;;5.80;99.90;;;;;;4995390;28;20423;-69
2024/02/18 05:58:49;;;;;;;16.27;13.30;;;5.80;99.90;;;;;;4994781;28;20465;-68
2024/02/18 06:01:15;;;;;;;16.50;13.77;;;5.80;99.90;;;;;;4995406;28;20514;-68
2024/02/18 06:03:40;;;;;;;13.37;11.90;;;5.80;99.90;;;;;;4995461;28;20532;-69
2024/02/18 06:06:06;;;;;;;12.90;11.53;;;5.80;99.90;;;;;;4995203;28;20725;-68
2024/02/18 06:08:31;;;;;;;14.13;12.63;;;5.80;99.90;;;;;;4994921;28;20214;-68
2024/02/18 06:10:57;;;;;;;15.63;12.37;;;5.80;99.90;;;;;;4995240;28;20164;-69
2024/02/18 06:13:22;;;;;;;17.43;12.50;;;5.80;99.90;;;;;;4995266;28;20171;-68
2024/02/18 06:15:48;;;;;;;15.13;11.67;;;5.80;99.90;;;;;;4995251;28;20159;-68
2024/02/18 06:18:13;;;;;;;15.93;14.50;;;5.70;99.90;;;;;;4994811;28;20210;-69
2024/02/18 06:20:40;;;;;;;14.70;13.13;;;5.70;99.90;;;;;;4994987;28;20180;-68
2024/02/18 06:23:06;;;;;;;16.37;14.00;;;5.70;99.90;;;;;;4995177;28;20168;-69
2024/02/18 06:25:36;;;;;;;20.57;16.50;;;5.70;99.90;;;;;;4994902;28;20506;-69
2024/02/18 06:28:08;;;;;;;16.53;14.30;;;5.70;99.90;;;;;;4994561;28;20219;-68
2024/02/18 06:30:35;;;;;;;18.80;15.27;;;5.80;99.90;;;;;;4994972;28;20967;-69
2024/02/18 06:33:01;;;;;;;16.90;15.10;;;5.80;99.90;;;;;;4994787;28;20454;-68
2024/02/18 06:35:27;;;;;;;19.77;14.80;;;5.90;99.90;;;;;;4994532;28;20481;-68
2024/02/18 06:37:52;;;;;;;17.23;14.93;;;6.00;99.90;;;;;;4994321;28;20207;-69
2024/02/18 06:40:18;;;;;;;18.10;15.40;;;6.10;99.90;;;;;;4994789;28;20547;-68
2024/02/18 06:42:43;;;;;;;19.20;15.10;;;6.10;99.90;;;;;;4994700;28;20251;-69
2024/02/18 06:45:09;;;;;;;18.10;14.40;;;6.10;99.90;;;;;;4994646;28;20178;-68
2024/02/18 06:47:35;;;;;;;19.43;13.93;;;6.10;99.90;;;;;;4993961;28;20219;-69
2024/02/18 06:50:01;;;;;;;15.30;13.70;;;6.20;99.90;;;;;;4994550;28;20174;-69
2024/02/18 06:52:26;;;;;;;15.87;14.07;;;6.20;99.90;;;;;;4994559;28;20175;-69
2024/02/18 06:54:52;;;;;;;19.80;13.67;;;6.40;99.90;;;;;;4985896;28;20490;-69
2024/02/18 06:57:17;;;;;;;15.83;14.23;;;6.50;99.90;;;;;;4974546;28;20271;-70
2024/02/18 06:59:42;;;;;;;16.73;13.53;;;6.60;99.90;;;;;;4974928;28;20215;-70
2024/02/18 07:02:08;;;;;;;15.57;13.07;;;6.70;99.90;;;;;;4974831;28;20173;-70
2024/02/18 07:04:34;;;;;;;15.23;12.53;;;6.70;99.90;;;;;;4974720;28;20543;-69
2024/02/18 07:06:59;;;;;;;18.80;12.60;;;6.70;99.90;;;;;;4974242;28;20203;-70
2024/02/18 07:09:25;;;;;;;14.63;12.47;;;6.70;99.90;;;;;;4988068;28;20175;-69
2024/02/18 07:11:50;;;;;;;15.07;12.80;;;6.60;99.90;;;;;;4993686;28;20172;-69
2024/02/18 07:14:16;;;;;;;19.87;13.63;;;6.60;99.90;;;;;;4993963;28;20247;-69
2024/02/18 07:16:41;;;;;;;14.90;13.40;;;6.60;99.90;;;;;;4993488;28;20192;-69
2024/02/18 07:19:07;;;;;;;15.90;13.60;;;6.60;99.90;;;;;;4993951;28;20167;-69
2024/02/18 07:21:33;;;;;;;16.83;14.93;;;6.50;99.90;;;;;;4993796;28;20234;-69
2024/02/18 07:23:58;;;;;;;14.47;11.87;;;6.70;99.90;;;;;;4993871;28;20168;-69
2024/02/18 07:26:24;;;;;;;14.40;12.90;;;6.70;99.90;;;;;;4993628;28;20164;-69
2024/02/18 07:28:50;;;;;;;16.80;14.70;;;6.80;99.90;;;;;;4993681;28;20231;-69
2024/02/18 07:31:16;;;;;;;17.03;15.23;;;6.90;99.90;;;;;;4993953;28;20171;-69
2024/02/18 07:33:42;;;;;;;16.27;14.57;;;7.20;99.90;;;;;;4993701;28;20430;-69
2024/02/18 07:36:09;;;;;;;18.30;15.30;;;7.60;99.90;;;;;;4993776;28;20423;-69
2024/02/18 07:38:35;;;;;;;16.40;14.77;;;7.90;99.90;;;;;;4993811;28;20286;-68
2024/02/18 07:41:01;;;;;;;16.07;14.47;;;8.20;99.90;;;;;;4993580;28;20426;-69
2024/02/18 07:43:26;;;;;;;15.23;13.73;;;8.50;99.90;;;;;;4993446;28;20398;-68
2024/02/18 07:45:52;;;;;;;15.27;13.70;;;8.90;99.90;;;;;;4993492;28;20168;-68
2024/02/18 07:48:17;;;;;;;16.37;14.60;;;9.00;99.90;;;;;;4992333;28;20204;-68
2024/02/18 07:50:43;;;;;;;16.00;14.37;;;9.10;99.90;;;;;;4993267;28;20178;-68
2024/02/18 07:53:09;;;;;;;16.23;12.90;;;9.30;99.90;;;;;;4993323;28;20198;-67
2024/02/18 07:55:34;;;;;;;14.80;13.30;;;9.60;99.90;;;;;;4993273;28;20291;-68
2024/02/18 07:58:01;;;;;;;15.83;12.40;;;9.80;99.90;;;;;;4992882;28;20200;-68
2024/02/18 08:00:26;;;;;;;13.80;12.40;;;10.20;99.90;;;;;;4993240;28;20627;-69
2024/02/18 08:02:52;;;;;;;14.37;12.97;;;10.60;99.90;;;;;;4993079;28;20450;-68
2024/02/18 08:05:18;;;;;;;14.37;12.10;;;10.90;99.90;;;;;;4993031;28;20423;-68
2024/02/18 08:07:44;;;;;;;15.30;13.70;;;10.90;99.90;;;;;;4992689;28;20286;-68
2024/02/18 08:10:09;;;;;;;14.70;12.53;;;11.30;99.90;;;;;;4993143;28;20172;-67
2024/02/18 08:12:35;;;;;;;13.07;11.90;;;11.40;99.90;;;;;;4993081;28;20168;-68
2024/02/18 08:15:01;;;;;;;12.63;11.43;;;11.30;99.90;;;;;;4993098;28;20182;-68
2024/02/18 08:17:26;;;;;;;13.13;11.90;;;11.40;99.90;;;;;;4992730;28;20200;-68
2024/02/18 08:19:52;;;;;;;12.97;11.70;;;11.50;99.90;;;;;;4992871;28;20501;-68
2024/02/18 08:22:17;;;;;;;14.70;13.20;;;11.80;99.90;;;;;;4992901;28;20180;-68
2024/02/18 08:24:43;;;;;;;13.90;12.60;;;11.80;99.90;;;;;;4992818;28;20287;-68
2024/02/18 08:27:09;;;;;;;15.20;11.33;;;11.70;99.90;;;;;;4992412;28;20203;-68
2024/02/18 08:29:35;;;;;;;12.40;11.23;;;11.80;99.90;;;;;;4992756;28;20259;-67
2024/02/18 08:32:02;;;;;;;15.33;12.13;;;12.20;99.90;;;;;;4992698;28;20518;-68
2024/02/18 08:34:28;;;;;;;13.33;10.60;;;12.10;99.90;;;;;;4992734;28;20167;-69
2024/02/18 08:36:54;;;;;;;13.37;12.07;;;12.10;99.90;;;;;;4992197;28;20505;-68
2024/02/18 08:39:20;;;;;;;15.10;12.90;;;12.00;99.90;;;;;;4992592;28;20450;-68
2024/02/18 08:41:46;;;;;;;13.83;12.53;;;12.30;99.90;;;;;;4992688;28;20695;-68
2024/02/18 08:44:14;;;;;;;14.37;13.03;;;12.10;99.90;;;;;;4992637;28;20514;-68
2024/02/18 08:46:40;;;;;;;15.80;14.20;;;12.10;99.90;;;;;;4992295;28;20208;-68
2024/02/18 08:49:05;;;;;;;14.33;12.87;;;12.40;99.90;;;;;;4992538;28;20901;-68
2024/02/18 08:51:31;;;;;;;12.70;11.50;;;12.80;99.90;;;;;;4992536;28;20193;-68
2024/02/18 08:53:56;;;;;;;13.27;11.07;;;13.80;99.90;;;;;;4992550;28;20179;-67
2024/02/18 08:56:22;;;;;;;12.67;10.73;;;14.90;99.90;;;;;;4992355;28;20604;-66
2024/02/18 08:58:47;;;;;;;13.13;11.53;;;15.80;99.90;;;;;;4993516;28;20195;-67
2024/02/18 09:01:13;;;;;;;12.53;11.17;;;16.10;99.90;;;;;;4996446;28;20168;-66
2024/02/18 09:03:38;;;;;;;12.53;11.33;;;16.50;99.90;;;;;;4996521;28;20199;-66
2024/02/18 09:06:04;;;;;;;11.50;10.50;;;16.70;99.90;;;;;;4996419;28;20179;-67
2024/02/18 09:08:30;;;;;;;11.87;10.70;;;16.80;99.90;;;;;;4995967;28;20215;-66
2024/02/18 09:10:55;;;;;;;12.20;11.10;;;16.00;99.90;;;;;;4996486;28;20170;-66
2024/02/18 09:13:21;;;;;;;15.93;14.33;;;15.10;99.90;;;;;;4996299;28;20211;-66
2024/02/18 09:15:48;;;;;;;13.03;11.93;;;14.70;99.90;;;;;;4996201;28;20170;-66
2024/02/18 09:18:14;;;;;;;11.60;10.40;;;15.30;99.90;;;;;;4995851;28;20187;-66
2024/02/18 09:20:40;;;;;;;12.20;9.97;;;15.60;99.90;;;;;;4996097;28;20426;-66
2024/02/18 09:23:06;;;;;;;11.03;10.00;;;16.70;99.90;;;;;;4996116;28;20477;-66
2024/02/18 09:25:31;;;;;;;10.17;9.10;;;17.50;99.90;;;;;;4996049;28;20418;-66
2024/02/18 09:27:57;;;;;;;7.83;7.03;;;17.90;98.00;;;;;;4995541;28;20239;-66
2024/02/18 09:30:22;;;;;;;8.53;7.80;;;17.80;96.40;;;;;;4995818;28;20180;-66
2024/02/18 09:32:48;;;;;;;8.70;7.90;;;17.50;96.10;;;;;;4995926;28;20723;-66
2024/02/18 09:35:13;;;;;;;9.50;8.27;;;16.60;98.00;;;;;;4995465;28;20551;-66
2024/02/18 09:37:39;;;;;;;8.63;7.83;;;16.20;98.40;;;;;;4993437;28;20199;-66
2024/02/18 09:40:05;;;;;;;8.87;8.17;;;15.90;98.70;;;;;;4994792;28;20206;-66
2024/02/18 09:42:35;;;;;;;8.70;6.87;;;16.00;99.50;;;;;;4994962;28;20171;-66
2024/02/18 09:45:05;;;;;;;7.50;6.90;;;15.60;99.90;;;;;;4994703;28;20512;-67
2024/02/18 09:47:31;;;;;;;6.83;6.23;;;14.90;99.90;;;;;;4994064;28;21078;-68
2024/02/18 09:49:58;;;;;;;7.13;6.53;;;14.70;99.90;;;;;;4994529;28;20414;-68
2024/02/18 09:52:25;;;;;;;7.77;7.17;;;14.30;99.90;;;;;;4995006;28;20422;-68
2024/02/18 09:54:52;;;;;;;7.97;7.17;;;14.10;99.90;;;;;;4994759;28;20925;-68
2024/02/18 09:57:18;;;;;;;7.07;6.23;;;14.10;99.90;;;;;;4994271;28;20446;-68
2024/02/18 09:59:43;;;;;;;6.93;6.37;;;14.70;99.90;;;;;;4995630;28;20480;-68
2024/02/18 10:02:11;;;;;;;7.83;7.03;;;15.10;99.90;;;;;;4995402;28;20175;-66
2024/02/18 10:04:37;;;;;;;7.83;7.13;;;15.20;99.90;;;;;;4995295;28;20225;-66
2024/02/18 10:07:03;;;;;;;10.70;9.67;;;15.00;99.90;;;;;;4994900;28;20458;-68
2024/02/18 10:09:31;;;;;;;6.93;6.40;;;15.30;99.90;;;;;;4995303;28;20498;-66
2024/02/18 10:11:57;;;;;;;7.00;6.40;;;15.50;99.90;;;;;;4994630;28;20422;-65
2024/02/18 10:14:25;;;;;;;6.93;6.33;;;15.30;99.90;;;;;;4995327;28;20462;-66
2024/02/18 10:16:51;;;;;;;6.70;6.10;;;15.20;99.90;;;;;;4994700;28;20936;-66
2024/02/18 10:19:17;;;;;;;5.97;5.47;;;15.20;99.90;;;;;;4995089;28;20550;-66
2024/02/18 10:21:44;;;;;;;6.57;5.93;;;15.00;99.90;;;;;;4995062;28;20838;-68
2024/02/18 10:24:12;;;;;;;7.57;6.97;;;15.10;99.90;;;;;;4995013;28;20298;-69
2024/02/18 10:26:38;;;;;;;6.80;6.20;;;14.80;99.90;;;;;;4994630;28;20526;-68
2024/02/18 10:29:05;;;;;;;6.47;5.97;;;14.80;99.90;;;;;;4994991;28;20565;-68
2024/02/18 10:31:32;;;;;;;6.77;6.27;;;14.80;99.90;;;;;;4994792;28;20175;-68
2024/02/18 10:33:57;;;;;;;6.53;5.93;;;15.00;99.90;;;;;;4994857;28;20462;-68
2024/02/18 10:36:25;;;;;;;6.30;5.80;;;15.60;99.90;;;;;;4994362;28;20475;-68
2024/02/18 10:38:53;;;;;;;7.23;6.37;;;15.90;99.90;;;;;;4994818;28;20668;-68
2024/02/18 10:41:21;;;;;;;6.37;5.87;;;15.60;99.90;;;;;;4994701;28;20418;-68
2024/02/18 10:43:57;;;;;;;6.17;5.67;;;15.70;99.90;;;;;;4994843;28;20904;-68
2024/02/18 10:46:23;;;;;;;7.17;6.50;;;16.10;99.90;;;;;;4994422;28;20473;-68
2024/02/18 10:48:56;;;;;;;6.80;6.30;;;16.50;97.70;;;;;;4994343;28;20490;-69
2024/02/18 10:51:29;;;;;;;7.17;6.50;;;17.50;95.30;;;;;;4994401;28;20414;-68
2024/02/18 10:54:06;;;;;;;6.10;5.60;;;17.50;93.80;;;;;;4994442;28;20477;-68
2024/02/18 10:56:32;;;;;;;6.20;5.60;;;16.90;94.80;;;;;;4994080;28;20426;-68
2024/02/18 10:59:27;;;;;;;5.80;5.23;;;16.30;96.40;;;;;;4994371;28;20485;-68
2024/02/18 11:01:59;;;;;;;6.93;6.23;;;16.30;97.40;;;;;;4994217;28;20415;-68
2024/02/18 11:04:26;;;;;;;5.70;5.20;;;16.30;97.50;;;;;;4994414;28;20479;-68
2024/02/18 11:06:53;;;;;;;5.60;5.10;;;16.20;97.00;;;;;;4993768;28;20525;-68
2024/02/18 11:09:19;;;;;;;6.07;5.57;;;16.20;98.00;;;;;;4994186;28;21099;-68
2024/02/18 11:11:47;;;;;;;7.43;6.73;;;15.60;98.00;;;;;;4994075;28;20489;-68
2024/02/18 11:14:14;;;;;;;6.00;5.50;;;15.20;98.80;;;;;;4994020;28;20862;-67
2024/02/18 11:16:42;;;;;;;7.33;6.70;;;14.90;99.90;;;;;;4993546;28;20446;-69
2024/02/18 11:19:09;;;;;;;6.60;5.90;;;14.50;99.90;;;;;;4993978;28;20430;-68
2024/02/18 11:21:36;;;;;;;6.83;6.33;;;14.40;99.90;;;;;;4993706;28;20466;-68
2024/02/18 11:24:02;;;;;;;7.20;6.53;;;14.70;99.90;;;;;;4993334;28;20438;-68
2024/02/18 11:26:28;;;;;;;5.77;5.37;;;14.80;99.90;;;;;;4993468;28;21003;-69
2024/02/18 11:29:02;;;;;;;5.47;5.07;;;14.80;99.90;;;;;;4993714;28;20466;-68
2024/02/18 11:31:30;;;;;;;5.50;5.00;;;14.90;99.90;;;;;;4993740;28;20168;-68
2024/02/18 11:33:56;;;;;;;6.00;5.47;;;14.90;99.90;;;;;;4993687;28;20425;-67
2024/02/18 11:36:26;;;;;;;7.00;6.27;;;14.90;99.90;;;;;;4993295;28;20498;-68
2024/02/18 11:38:53;;;;;;;5.27;4.90;;;14.90;99.90;;;;;;4993633;28;20557;-68
2024/02/18 11:41:20;;;;;;;6.13;5.60;;;14.70;99.90;;;;;;4993453;28;20419;-68
2024/02/18 11:43:55;;;;;;;5.50;5.10;;;14.70;99.90;;;;;;5069229;28;20544;-68
2024/02/18 11:46:24;;;;;;;5.77;5.23;;;14.80;99.90;;;;;;5049165;28;20416;-68
2024/02/18 11:48:50;;;;;;;5.60;5.10;;;15.00;99.90;;;;;;5049321;28;20928;-68
2024/02/18 11:51:16;;;;;;;5.70;5.30;;;15.30;99.90;;;;;;5049365;28;20871;-68
2024/02/18 11:53:42;;;;;;;4.97;4.57;;;15.30;99.90;;;;;;5049316;28;20455;-68
2024/02/18 11:56:09;;;;;;;5.53;5.00;;;15.40;99.90;;;;;;5049569;28;20178;-69
2024/02/18 11:58:34;;;;;;;5.77;5.17;;;15.50;99.50;;;;;;5048299;28;20428;-69
2024/02/18 12:01:04;;;;;;;6.17;5.67;;;15.40;98.70;;;;;;5049041;28;20426;-69
2024/02/18 12:03:31;;;;;;;5.30;4.80;;;15.50;99.60;;;;;;5048970;28;20706;-68
2024/02/18 12:06:01;;;;;;;6.37;5.87;;;15.30;99.30;;;;;;5048929;28;20963;-69
2024/02/18 12:08:28;;;;;;;8.00;5.80;;;15.00;99.80;;;;;;5048614;28;20533;-69
2024/02/18 12:10:54;;;;;;;5.30;4.90;;;14.90;99.30;;;;;;5048959;28;20921;-69
2024/02/18 12:13:23;;;;;;;5.10;4.60;;;14.70;99.90;;;;;;5049040;28;20416;-69
2024/02/18 12:15:49;;;;;;;6.00;5.50;;;14.80;99.90;;;;;;5048757;28;20428;-69
2024/02/18 12:18:16;;;;;;;5.47;5.07;;;14.90;99.90;;;;;;5048430;28;20444;-69
2024/02/18 12:20:47;;;;;;;5.87;5.37;;;15.00;99.90;;;;;;5048749;28;20424;-69
2024/02/18 12:23:14;;;;;;;6.53;5.93;;;15.00;99.90;;;;;;5048631;28;20463;-69
2024/02/18 12:25:40;;;;;;;6.70;6.10;;;15.20;99.90;;;;;;5048646;28;20427;-69
2024/02/18 12:28:08;;;;;;;6.60;6.10;;;15.20;99.90;;;;;;5048145;28;20436;-69
2024/02/18 12:30:34;;;;;;;6.47;5.87;;;14.90;99.90;;;;;;5048598;28;20419;-69
2024/02/18 12:33:02;;;;;;;9.40;8.60;;;14.70;99.90;;;;;;5048453;28;20420;-69
2024/02/18 12:35:27;;;;;;;8.30;7.60;;;14.60;99.90;;;;;;5048441;28;20178;-69
2024/02/18 12:37:53;;;;;;;8.67;7.87;;;14.50;99.90;;;;;;5048078;28;20462;-69